Viola, Kentucky
Current Conditions -  °F | °C
As of 7:55 PM on Wednesday 22 Oct 2014 (Local Time) from KM25 Reporting Station
Clear Clear  
Wind Chill: 50°   Ceiling: Unl
Heat Index: 50°   Visibility: 10mi
Dew Point: 43°   Wind: 3mph
Humidity: 76%   Direction: 30°NNE
Pressure: 30.23"   Gusts: NA
Location:  36.8496°N, 88.6894°W
Report Text: KM25 230055Z AUTO 03003KT 10SM CLR 10/06 A3023 RMK AO2
Loading
Personal Weather Stations






























Interactive Weather Map
Tropical Storm Tracking
New forecast layout! Learn more

10-Day Weather Forecast

Advertisements
Track Severe Weather on mobile